Time;durP1;ratioP1;P1;durP2;ratioP2;P2;SDS_P1;SDS_P2;PMS_P1;PMS_P2;Temp;Humidity;BMP_temperature;BMP_pressure;BME280_temperature;BME280_humidity;BME280_pressure;Samples;Min_cycle;Max_cycle;Signal;HPM_P1;HPM_P2
2022/10/12 00:01:18;;;;;;;12.65;9.93;;;;;;;;;;4971546;28;20049;-62
2022/10/12 00:03:43;;;;;;;12.73;9.88;;;;;;;;;;4969510;28;20060;-62
2022/10/12 00:06:08;;;;;;;11.60;9.13;;;;;;;;;;4970441;28;20125;-62
2022/10/12 00:08:35;;;;;;;13.10;10.32;;;;;;;;;;4970752;28;20133;-62
2022/10/12 00:11:00;;;;;;;12.25;9.70;;;;;;;;;;4968854;28;20015;-62
2022/10/12 00:13:28;;;;;;;11.05;9.98;;;;;;;;;;4969260;28;20070;-63
2022/10/12 00:15:53;;;;;;;12.88;8.82;;;;;;;;;;4970726;28;20149;-62
2022/10/12 00:18:19;;;;;;;10.23;9.25;;;;;;;;;;4971706;28;20035;-62
2022/10/12 00:20:44;;;;;;;14.68;10.38;;;;;;;;;;4971300;28;20137;-62
2022/10/12 00:23:10;;;;;;;14.93;10.65;;;;;;;;;;4970434;28;20018;-62
2022/10/12 00:25:36;;;;;;;19.02;9.48;;;;;;;;;;4975373;28;20042;-62
2022/10/12 00:28:02;;;;;;;18.35;11.73;;;;;;;;;;4972379;28;20030;-62
2022/10/12 00:30:27;;;;;;;13.30;10.05;;;;;;;;;;4973766;28;20389;-62
2022/10/12 00:32:52;;;;;;;11.18;9.70;;;;;;;;;;4974915;28;20915;-62
2022/10/12 00:35:17;;;;;;;13.10;10.10;;;;;;;;;;4974455;28;20149;-62
2022/10/12 00:37:43;;;;;;;11.82;9.30;;;;;;;;;;4973686;28;20144;-62
2022/10/12 00:40:08;;;;;;;12.80;8.95;;;;;;;;;;4973422;28;20037;-62
2022/10/12 00:42:33;;;;;;;11.73;9.55;;;;;;;;;;4973021;28;20030;-62
2022/10/12 00:44:59;;;;;;;12.57;9.70;;;;;;;;;;4974619;28;20057;-62
2022/10/12 00:47:29;;;;;;;12.55;8.98;;;;;;;;;;4971963;28;20054;-62
2022/10/12 00:49:54;;;;;;;16.25;9.57;;;;;;;;;;4972732;28;20018;-62
2022/10/12 00:52:21;;;;;;;10.35;9.30;;;;;;;;;;4973068;28;20056;-62
2022/10/12 00:54:49;;;;;;;12.13;9.52;;;;;;;;;;4972603;28;20037;-62
2022/10/12 00:57:15;;;;;;;10.80;9.10;;;;;;;;;;4968152;28;20027;-61
2022/10/12 00:59:46;;;;;;;11.13;9.23;;;;;;;;;;4970440;28;20050;-62
2022/10/12 01:02:12;;;;;;;14.18;9.30;;;;;;;;;;4972463;28;20037;-62
2022/10/12 01:04:38;;;;;;;13.10;10.13;;;;;;;;;;4972475;28;20488;-62
2022/10/12 01:07:03;;;;;;;14.13;10.32;;;;;;;;;;4971152;28;20035;-62
2022/10/12 01:09:28;;;;;;;17.80;10.88;;;;;;;;;;4968597;28;20042;-62
2022/10/12 01:11:55;;;;;;;12.43;10.98;;;;;;;;;;4967607;28;20026;-61
2022/10/12 01:14:20;;;;;;;14.00;10.70;;;;;;;;;;4971289;28;20626;-62
2022/10/12 01:16:50;;;;;;;15.88;11.82;;;;;;;;;;4973494;28;20042;-62
2022/10/12 01:19:25;;;;;;;16.08;11.15;;;;;;;;;;4972397;28;20894;-62
2022/10/12 01:21:55;;;;;;;17.80;11.90;;;;;;;;;;4972974;28;20038;-62
2022/10/12 01:24:30;;;;;;;14.75;12.20;;;;;;;;;;4972322;28;20038;-61
2022/10/12 01:27:10;;;;;;;14.98;11.73;;;;;;;;;;4972977;28;20023;-61
2022/10/12 01:29:42;;;;;;;17.05;12.82;;;;;;;;;;4970915;28;20034;-61
2022/10/12 01:32:20;;;;;;;12.77;11.35;;;;;;;;;;4971836;28;20045;-61
2022/10/12 01:35:01;;;;;;;21.90;12.20;;;;;;;;;;4971279;28;20035;-62
2022/10/12 01:37:52;;;;;;;16.23;13.20;;;;;;;;;;4968865;28;20456;-61
2022/10/12 01:40:25;;;;;;;15.68;12.00;;;;;;;;;;4966500;28;20097;-61
2022/10/12 01:42:52;;;;;;;17.98;13.02;;;;;;;;;;4972771;28;20114;-61
2022/10/12 01:45:18;;;;;;;16.42;12.35;;;;;;;;;;4971387;28;20039;-61
2022/10/12 01:47:53;;;;;;;19.35;13.35;;;;;;;;;;4971410;28;20612;-61
2022/10/12 01:50:20;;;;;;;16.55;12.18;;;;;;;;;;4971204;28;20022;-61
2022/10/12 01:52:52;;;;;;;16.75;13.55;;;;;;;;;;4972892;28;20521;-61
2022/10/12 01:55:20;;;;;;;17.10;13.15;;;;;;;;;;4972745;28;20530;-61
2022/10/12 01:57:57;;;;;;;13.65;12.25;;;;;;;;;;4970356;28;20030;-61
2022/10/12 02:00:22;;;;;;;18.20;12.88;;;;;;;;;;4967124;28;20069;-61
2022/10/12 02:02:54;;;;;;;18.05;13.90;;;;;;;;;;4968645;28;20573;-61
2022/10/12 02:05:34;;;;;;;17.27;13.68;;;;;;;;;;4973195;28;20023;-63
2022/10/12 02:08:02;;;;;;;17.17;13.75;;;;;;;;;;4970286;28;20636;-63
2022/10/12 02:10:31;;;;;;;15.32;12.15;;;;;;;;;;4970737;28;20027;-63
2022/10/12 02:12:57;;;;;;;17.10;13.48;;;;;;;;;;4969978;28;20062;-63
2022/10/12 02:15:24;;;;;;;15.38;13.25;;;;;;;;;;4972464;28;20948;-64
2022/10/12 02:17:50;;;;;;;20.27;12.75;;;;;;;;;;4972043;28;20453;-63
2022/10/12 02:20:16;;;;;;;15.73;12.20;;;;;;;;;;4972288;28;20026;-65
2022/10/12 02:22:44;;;;;;;21.13;13.60;;;;;;;;;;4972004;28;20026;-64
2022/10/12 02:25:10;;;;;;;15.73;12.30;;;;;;;;;;4971803;28;20042;-63
2022/10/12 02:27:38;;;;;;;18.13;13.88;;;;;;;;;;4971551;28;20105;-64
2022/10/12 02:30:04;;;;;;;18.35;13.73;;;;;;;;;;4972886;28;20045;-65
2022/10/12 02:32:36;;;;;;;18.67;14.13;;;;;;;;;;4972726;28;20042;-64
2022/10/12 02:35:04;;;;;;;17.52;12.52;;;;;;;;;;4971610;28;20032;-64
2022/10/12 02:37:35;;;;;;;17.80;13.48;;;;;;;;;;4970637;28;20705;-64
2022/10/12 02:40:19;;;;;;;15.93;12.90;;;;;;;;;;4973621;28;20022;-63
2022/10/12 02:42:50;;;;;;;15.25;12.32;;;;;;;;;;4971310;28;20041;-63
2022/10/12 02:45:16;;;;;;;19.08;13.18;;;;;;;;;;4972844;28;20042;-64
2022/10/12 02:47:42;;;;;;;21.23;13.40;;;;;;;;;;4973264;28;20529;-63
2022/10/12 02:50:08;;;;;;;19.83;13.32;;;;;;;;;;4969993;28;20107;-63
2022/10/12 02:52:33;;;;;;;19.08;13.63;;;;;;;;;;4971104;28;20753;-63
2022/10/12 02:54:59;;;;;;;17.80;12.25;;;;;;;;;;4971595;28;20893;-59
2022/10/12 02:57:24;;;;;;;15.57;12.05;;;;;;;;;;4971124;28;20046;-64
2022/10/12 02:59:49;;;;;;;16.48;12.05;;;;;;;;;;4968871;28;20406;-65
2022/10/12 03:02:15;;;;;;;18.45;11.52;;;;;;;;;;4952275;28;20027;-60
2022/10/12 03:04:40;;;;;;;13.25;10.60;;;;;;;;;;4970097;28;20076;-61
2022/10/12 03:07:05;;;;;;;14.52;12.02;;;;;;;;;;4957995;28;20766;-61
2022/10/12 03:09:30;;;;;;;13.15;11.23;;;;;;;;;;4970389;28;20394;-61
2022/10/12 03:11:56;;;;;;;15.57;12.00;;;;;;;;;;4969698;28;20015;-59
2022/10/12 03:14:21;;;;;;;13.90;11.40;;;;;;;;;;4969958;28;20037;-61
2022/10/12 03:16:47;;;;;;;13.95;10.88;;;;;;;;;;4970620;28;20114;-60
2022/10/12 03:19:12;;;;;;;16.02;11.63;;;;;;;;;;4970823;28;20636;-59
2022/10/12 03:21:37;;;;;;;15.02;12.10;;;;;;;;;;4971286;28;20813;-59
2022/10/12 03:24:03;;;;;;;17.48;11.80;;;;;;;;;;4971788;28;20121;-59
2022/10/12 03:26:28;;;;;;;20.15;11.98;;;;;;;;;;4973251;28;20030;-59
2022/10/12 03:28:53;;;;;;;14.52;12.48;;;;;;;;;;4971972;28;20957;-60
2022/10/12 03:31:18;;;;;;;16.20;11.95;;;;;;;;;;4972692;28;20061;-59
2022/10/12 03:33:44;;;;;;;16.35;13.25;;;;;;;;;;4972000;28;20027;-59
2022/10/12 03:36:09;;;;;;;21.67;14.30;;;;;;;;;;4972368;28;20072;-59
2022/10/12 03:38:34;;;;;;;18.60;13.02;;;;;;;;;;4973231;28;20034;-60
2022/10/12 03:41:00;;;;;;;20.33;12.95;;;;;;;;;;4968791;28;20034;-59
2022/10/12 03:43:25;;;;;;;20.65;14.00;;;;;;;;;;4966260;28;20057;-59
2022/10/12 03:45:51;;;;;;;14.43;12.85;;;;;;;;;;4971455;28;20438;-60
2022/10/12 03:48:16;;;;;;;19.95;14.07;;;;;;;;;;4972101;28;20023;-59
2022/10/12 03:50:46;;;;;;;23.00;15.25;;;;;;;;;;4972081;28;20498;-60
2022/10/12 03:53:11;;;;;;;18.48;14.45;;;;;;;;;;4974420;28;20118;-60
2022/10/12 03:55:37;;;;;;;17.08;14.35;;;;;;;;;;4974798;28;20576;-60
2022/10/12 03:58:02;;;;;;;16.98;13.23;;;;;;;;;;4970990;28;21045;-62
2022/10/12 04:00:27;;;;;;;16.42;13.38;;;;;;;;;;4965804;28;20031;-61
2022/10/12 04:02:52;;;;;;;16.90;13.40;;;;;;;;;;4975525;28;20031;-60
2022/10/12 04:05:18;;;;;;;16.85;13.23;;;;;;;;;;4974965;28;20121;-59
2022/10/12 04:07:43;;;;;;;18.83;12.40;;;;;;;;;;4975076;28;20109;-59
2022/10/12 04:10:08;;;;;;;18.50;12.98;;;;;;;;;;4974379;28;20140;-59
2022/10/12 04:12:34;;;;;;;16.48;14.07;;;;;;;;;;4975407;28;20486;-59
2022/10/12 04:14:59;;;;;;;17.50;13.95;;;;;;;;;;4969392;28;20034;-59
2022/10/12 04:17:24;;;;;;;17.48;13.52;;;;;;;;;;4976102;28;20039;-58
2022/10/12 04:19:49;;;;;;;16.77;13.10;;;;;;;;;;4973768;28;20030;-59
2022/10/12 04:22:15;;;;;;;18.17;13.85;;;;;;;;;;4975121;28;20030;-59
2022/10/12 04:24:40;;;;;;;21.10;13.98;;;;;;;;;;4973987;28;20093;-59
2022/10/12 04:27:05;;;;;;;21.58;14.00;;;;;;;;;;4976188;28;20415;-59
2022/10/12 04:29:30;;;;;;;18.05;13.38;;;;;;;;;;4974667;28;20089;-59
2022/10/12 04:31:56;;;;;;;21.70;14.73;;;;;;;;;;4975774;28;20062;-59
2022/10/12 04:34:21;;;;;;;18.15;13.38;;;;;;;;;;4974858;28;20049;-59
2022/10/12 04:36:46;;;;;;;16.55;13.93;;;;;;;;;;4955331;28;20039;-59
2022/10/12 04:39:12;;;;;;;17.40;13.68;;;;;;;;;;4972343;28;20034;-59
2022/10/12 04:41:38;;;;;;;22.88;15.20;;;;;;;;;;4973063;28;20601;-60
2022/10/12 04:44:04;;;;;;;20.15;14.18;;;;;;;;;;4975398;28;20035;-59
2022/10/12 04:46:29;;;;;;;17.65;13.10;;;;;;;;;;4974451;28;20104;-60
2022/10/12 04:48:54;;;;;;;17.23;13.30;;;;;;;;;;4974142;28;20680;-59
2022/10/12 04:51:19;;;;;;;16.92;12.52;;;;;;;;;;4974614;28;20406;-60
2022/10/12 04:53:44;;;;;;;16.52;12.68;;;;;;;;;;4976208;28;20026;-59
2022/10/12 04:56:10;;;;;;;15.35;12.60;;;;;;;;;;4974999;28;20039;-60
2022/10/12 04:58:35;;;;;;;16.95;12.13;;;;;;;;;;4975180;28;20082;-59
2022/10/12 05:01:00;;;;;;;23.92;14.50;;;;;;;;;;4974458;28;20145;-59
2022/10/12 05:03:26;;;;;;;18.30;14.65;;;;;;;;;;4972258;28;20026;-60
2022/10/12 05:05:51;;;;;;;17.73;13.35;;;;;;;;;;4970686;28;20034;-55
2022/10/12 05:08:16;;;;;;;19.15;12.88;;;;;;;;;;4968738;28;20038;-62
2022/10/12 05:10:41;;;;;;;36.75;28.48;;;;;;;;;;4968942;28;20034;-62
2022/10/12 05:13:07;;;;;;;25.73;16.73;;;;;;;;;;4973164;28;20604;-62
2022/10/12 05:15:32;;;;;;;24.35;14.60;;;;;;;;;;4970584;28;20094;-62
2022/10/12 05:17:57;;;;;;;17.08;13.77;;;;;;;;;;4967149;28;20672;-62
2022/10/12 05:20:22;;;;;;;17.45;13.73;;;;;;;;;;4966909;28;20031;-62
2022/10/12 05:22:48;;;;;;;21.13;15.77;;;;;;;;;;4970943;28;20033;-62
2022/10/12 05:25:13;;;;;;;18.65;14.77;;;;;;;;;;4970331;28;20045;-62
2022/10/12 05:27:40;;;;;;;20.02;14.82;;;;;;;;;;4972044;28;20058;-63
2022/10/12 05:30:06;;;;;;;21.33;16.33;;;;;;;;;;4967455;28;20022;-61
2022/10/12 05:32:31;;;;;;;23.20;17.58;;;;;;;;;;4969932;28;20066;-62
2022/10/12 05:34:57;;;;;;;26.67;17.80;;;;;;;;;;4970778;28;20038;-62
2022/10/12 05:37:22;;;;;;;20.88;17.00;;;;;;;;;;4972645;28;20452;-62
2022/10/12 05:39:48;;;;;;;21.77;17.83;;;;;;;;;;4972062;28;20018;-62
2022/10/12 05:42:14;;;;;;;25.30;18.45;;;;;;;;;;4971517;28;20034;-62
2022/10/12 05:44:39;;;;;;;23.13;18.00;;;;;;;;;;4972441;28;20042;-62
2022/10/12 05:47:04;;;;;;;25.45;18.08;;;;;;;;;;4968369;28;20033;-62
2022/10/12 05:49:29;;;;;;;21.75;17.98;;;;;;;;;;4968487;28;20023;-62
2022/10/12 05:51:55;;;;;;;27.88;17.63;;;;;;;;;;4971356;28;20385;-62
2022/10/12 05:54:20;;;;;;;24.90;18.50;;;;;;;;;;4972066;28;20118;-62
2022/10/12 05:56:45;;;;;;;24.73;17.60;;;;;;;;;;4972155;28;20458;-61
2022/10/12 05:59:10;;;;;;;23.77;17.52;;;;;;;;;;4971590;28;20477;-62
2022/10/12 06:01:36;;;;;;;24.42;17.77;;;;;;;;;;4955235;28;20920;-61
2022/10/12 06:04:01;;;;;;;21.80;17.88;;;;;;;;;;4971251;28;20302;-60
2022/10/12 06:06:26;;;;;;;27.15;16.10;;;;;;;;;;4971367;28;20183;-61
2022/10/12 06:08:52;;;;;;;19.27;16.27;;;;;;;;;;4972311;28;20089;-63
2022/10/12 06:11:17;;;;;;;21.88;15.75;;;;;;;;;;4971166;28;20383;-64
2022/10/12 06:13:42;;;;;;;25.02;16.23;;;;;;;;;;4970114;28;20150;-61
2022/10/12 06:16:07;;;;;;;18.98;13.68;;;;;;;;;;4968061;28;20942;-63
2022/10/12 06:18:33;;;;;;;17.52;14.82;;;;;;;;;;4968543;28;20114;-62
2022/10/12 06:20:58;;;;;;;23.83;16.63;;;;;;;;;;4972262;28;20536;-61
2022/10/12 06:23:23;;;;;;;16.92;14.38;;;;;;;;;;4959854;28;20030;-61
2022/10/12 06:25:49;;;;;;;30.25;19.80;;;;;;;;;;4969904;28;20150;-62
2022/10/12 06:28:15;;;;;;;19.92;15.93;;;;;;;;;;4969857;28;20062;-62
2022/10/12 06:30:41;;;;;;;21.50;16.50;;;;;;;;;;4971275;28;20043;-62
2022/10/12 06:33:06;;;;;;;25.42;18.70;;;;;;;;;;4970361;28;20086;-62
2022/10/12 06:35:31;;;;;;;23.85;17.80;;;;;;;;;;4953316;28;20041;-63
2022/10/12 06:37:56;;;;;;;21.80;17.02;;;;;;;;;;4967540;28;20027;-63
2022/10/12 06:40:22;;;;;;;19.85;16.67;;;;;;;;;;4968578;28;20050;-63
2022/10/12 06:42:47;;;;;;;16.58;14.15;;;;;;;;;;4971800;28;20034;-63
2022/10/12 06:45:13;;;;;;;18.30;13.75;;;;;;;;;;4971282;28;20492;-62
2022/10/12 06:47:38;;;;;;;19.13;14.45;;;;;;;;;;4968533;28;20026;-63
2022/10/12 06:50:03;;;;;;;17.05;13.70;;;;;;;;;;4970213;28;20040;-66
2022/10/12 06:52:29;;;;;;;17.27;13.50;;;;;;;;;;4970643;28;20053;-66
2022/10/12 06:54:54;;;;;;;18.70;13.63;;;;;;;;;;4971860;28;20117;-67
2022/10/12 06:57:19;;;;;;;16.25;12.85;;;;;;;;;;4971039;28;20500;-64
2022/10/12 06:59:44;;;;;;;20.63;13.85;;;;;;;;;;4971583;28;20081;-65
2022/10/12 07:02:10;;;;;;;19.48;14.27;;;;;;;;;;4971307;28;20505;-63
2022/10/12 07:04:35;;;;;;;19.63;14.60;;;;;;;;;;4970579;28;20481;-62
2022/10/12 07:07:00;;;;;;;17.77;13.73;;;;;;;;;;4970298;28;20019;-66
2022/10/12 07:09:26;;;;;;;16.55;13.88;;;;;;;;;;4967513;28;20396;-62
2022/10/12 07:11:51;;;;;;;20.10;14.00;;;;;;;;;;4966940;28;20094;-63
2022/10/12 07:14:16;;;;;;;17.58;14.30;;;;;;;;;;4966999;28;20043;-63
2022/10/12 07:16:41;;;;;;;21.30;12.70;;;;;;;;;;4959582;28;20481;-63
2022/10/12 07:19:07;;;;;;;16.23;12.23;;;;;;;;;;4966565;28;20729;-67
2022/10/12 07:21:32;;;;;;;16.20;12.15;;;;;;;;;;4970031;28;20077;-65
2022/10/12 07:23:57;;;;;;;16.02;11.70;;;;;;;;;;4969202;28;20085;-66
2022/10/12 07:26:22;;;;;;;14.38;11.88;;;;;;;;;;4969289;28;20035;-66
2022/10/12 07:28:48;;;;;;;14.73;12.02;;;;;;;;;;4967099;28;20034;-66
2022/10/12 07:31:13;;;;;;;15.00;11.95;;;;;;;;;;4952038;28;20423;-68
2022/10/12 07:33:38;;;;;;;15.98;11.73;;;;;;;;;;4938224;28;20496;-66
2022/10/12 07:36:04;;;;;;;15.30;11.27;;;;;;;;;;4967026;28;20093;-63
2022/10/12 07:38:30;;;;;;;17.90;11.35;;;;;;;;;;4967821;28;20022;-67
2022/10/12 07:40:59;;;;;;;13.98;11.90;;;;;;;;;;4970735;28;20026;-67
2022/10/12 07:43:25;;;;;;;16.83;13.40;;;;;;;;;;4969695;28;20465;-67
2022/10/12 07:45:50;;;;;;;14.93;10.77;;;;;;;;;;4970515;28;20125;-66
2022/10/12 07:48:15;;;;;;;14.10;12.00;;;;;;;;;;4952171;28;20494;-66
2022/10/12 07:50:41;;;;;;;15.20;11.02;;;;;;;;;;4970164;28;20022;-66
2022/10/12 07:53:06;;;;;;;16.77;10.18;;;;;;;;;;4970280;28;20027;-66
2022/10/12 07:55:31;;;;;;;14.13;11.25;;;;;;;;;;4970944;28;20039;-67
2022/10/12 07:57:57;;;;;;;17.33;12.43;;;;;;;;;;4969183;28;20496;-67
2022/10/12 08:00:23;;;;;;;18.75;11.93;;;;;;;;;;4952707;28;20030;-66
2022/10/12 08:02:48;;;;;;;15.48;11.93;;;;;;;;;;4964495;28;20074;-66
2022/10/12 08:05:13;;;;;;;13.45;10.27;;;;;;;;;;4968438;28;20980;-66
2022/10/12 08:07:38;;;;;;;15.75;10.77;;;;;;;;;;4967514;28;20563;-66
2022/10/12 08:10:04;;;;;;;18.02;12.23;;;;;;;;;;4965382;28;20096;-66
2022/10/12 08:12:29;;;;;;;16.52;11.57;;;;;;;;;;4954446;28;20053;-66
2022/10/12 08:14:54;;;;;;;17.48;11.80;;;;;;;;;;4971148;28;20034;-66
2022/10/12 08:17:19;;;;;;;17.30;12.23;;;;;;;;;;4968712;28;20092;-66
2022/10/12 08:19:45;;;;;;;12.18;10.60;;;;;;;;;;4962242;28;20026;-66
2022/10/12 08:22:11;;;;;;;17.52;11.68;;;;;;;;;;4969131;28;20039;-65
2022/10/12 08:24:36;;;;;;;12.88;9.75;;;;;;;;;;4970891;28;20039;-66
2022/10/12 08:27:02;;;;;;;14.73;12.18;;;;;;;;;;4969136;28;20723;-66
2022/10/12 08:29:27;;;;;;;12.23;10.10;;;;;;;;;;4966278;28;20698;-66
2022/10/12 08:31:53;;;;;;;15.25;10.02;;;;;;;;;;4965832;28;20039;-65
2022/10/12 08:34:18;;;;;;;12.63;10.15;;;;;;;;;;4969337;28;20529;-67
2022/10/12 08:36:44;;;;;;;13.65;10.68;;;;;;;;;;4970549;28;20073;-68
2022/10/12 08:39:09;;;;;;;15.07;11.07;;;;;;;;;;4968308;28;20026;-67
2022/10/12 08:41:55;;;;;;;12.95;11.05;;;;;;;;;;4971938;28;20041;-67
2022/10/12 08:44:26;;;;;;;11.30;9.55;;;;;;;;;;4967605;28;20062;-67
2022/10/12 08:46:59;;;;;;;11.65;9.18;;;;;;;;;;4970782;28;20028;-67
2022/10/12 08:49:25;;;;;;;12.68;11.02;;;;;;;;;;4970005;28;20035;-68
2022/10/12 08:51:58;;;;;;;14.88;10.20;;;;;;;;;;4971970;28;20870;-69
2022/10/12 08:54:25;;;;;;;10.98;8.88;;;;;;;;;;4974022;28;20933;-69
2022/10/12 08:56:53;;;;;;;15.52;10.82;;;;;;;;;;4974502;28;20454;-69
2022/10/12 08:59:19;;;;;;;18.95;11.27;;;;;;;;;;4973271;28;20022;-69
2022/10/12 09:01:47;;;;;;;14.88;10.32;;;;;;;;;;4971589;28;20390;-69
2022/10/12 09:04:38;;;;;;;14.80;10.10;;;;;;;;;;4971819;28;20035;-68
2022/10/12 09:07:11;;;;;;;15.15;10.57;;;;;;;;;;4906608;29;20076;-67
2022/10/12 09:09:55;;;;;;;18.25;11.48;;;;;;;;;;4905397;29;20032;-68
2022/10/12 09:12:31;;;;;;;12.65;10.45;;;;;;;;;;4902009;29;20059;-69
2022/10/12 09:15:02;;;;;;;16.20;10.43;;;;;;;;;;4901676;29;20036;-69
2022/10/12 09:17:39;;;;;;;12.70;10.90;;;;;;;;;;4905938;29;20072;-69
2022/10/12 09:20:04;;;;;;;11.13;9.93;;;;;;;;;;4904735;29;20022;-69
2022/10/12 09:22:31;;;;;;;14.23;10.10;;;;;;;;;;4902556;29;20032;-68
2022/10/12 09:24:57;;;;;;;15.95;11.07;;;;;;;;;;4901248;29;20040;-69
2022/10/12 09:27:22;;;;;;;15.63;11.07;;;;;;;;;;4905290;29;20530;-63
2022/10/12 09:29:54;;;;;;;13.43;9.40;;;;;;;;;;4902142;29;20114;-61
2022/10/12 09:32:26;;;;;;;12.65;9.00;;;;;;;;;;4900896;29;20540;-60
2022/10/12 09:34:51;;;;;;;13.60;8.85;;;;;;;;;;4903524;29;20373;-67
2022/10/12 09:37:28;;;;;;;13.93;8.93;;;;;;;;;;4902333;29;20084;-64
2022/10/12 09:39:53;;;;;;;12.30;9.00;;;;;;;;;;4905314;29;20038;-64
2022/10/12 09:42:19;;;;;;;10.25;8.38;;;;;;;;;;4907098;29;20444;-67
2022/10/12 09:44:44;;;;;;;13.43;9.52;;;;;;;;;;4958923;28;20066;-68
2022/10/12 09:47:28;;;;;;;12.82;7.90;;;;;;;;;;4969651;28;20027;-66
2022/10/12 09:49:57;;;;;;;8.90;7.80;;;;;;;;;;4973473;28;20030;-68
2022/10/12 09:52:35;;;;;;;12.55;8.35;;;;;;;;;;4967093;28;20034;-66
2022/10/12 09:55:05;;;;;;;10.23;7.68;;;;;;;;;;4972295;28;20330;-66
2022/10/12 09:57:33;;;;;;;12.88;8.02;;;;;;;;;;4972677;28;20056;-65
2022/10/12 09:59:59;;;;;;;9.85;8.10;;;;;;;;;;4973575;28;20054;-65
2022/10/12 10:02:25;;;;;;;14.82;8.23;;;;;;;;;;4971943;28;20041;-69
2022/10/12 10:04:51;;;;;;;11.73;7.88;;;;;;;;;;4970535;28;20034;-68
2022/10/12 10:07:19;;;;;;;13.80;7.78;;;;;;;;;;4973777;28;20632;-69
2022/10/12 10:09:45;;;;;;;12.18;8.07;;;;;;;;;;4971817;28;20022;-67
2022/10/12 10:12:12;;;;;;;8.80;7.03;;;;;;;;;;4973471;28;20399;-68
2022/10/12 10:14:37;;;;;;;12.02;7.18;;;;;;;;;;4953500;28;20378;-68
2022/10/12 10:17:02;;;;;;;11.27;7.18;;;;;;;;;;4957109;28;20038;-68
2022/10/12 10:19:27;;;;;;;9.18;7.63;;;;;;;;;;4972272;28;20031;-69
2022/10/12 10:21:54;;;;;;;11.18;7.10;;;;;;;;;;4967787;28;20597;-68
2022/10/12 10:24:25;;;;;;;10.45;8.13;;;;;;;;;;4965157;28;20116;-69
2022/10/12 10:26:50;;;;;;;13.32;7.22;;;;;;;;;;4971741;28;20038;-69
2022/10/12 10:29:15;;;;;;;12.35;7.70;;;;;;;;;;4968470;28;20093;-69
2022/10/12 10:31:41;;;;;;;18.02;9.90;;;;;;;;;;4968034;28;20030;-69
2022/10/12 10:34:06;;;;;;;12.68;7.25;;;;;;;;;;4969989;28;20100;-69
2022/10/12 10:36:33;;;;;;;11.05;7.55;;;;;;;;;;4972204;28;20027;-69
2022/10/12 10:39:04;;;;;;;9.80;7.20;;;;;;;;;;4969653;28;20022;-69
2022/10/12 10:41:39;;;;;;;8.48;7.53;;;;;;;;;;4973424;28;20023;-69
2022/10/12 10:44:11;;;;;;;9.90;7.18;;;;;;;;;;4970035;28;20034;-68
2022/10/12 10:46:37;;;;;;;11.55;7.85;;;;;;;;;;4971337;28;20081;-69
2022/10/12 10:49:05;;;;;;;27.95;17.30;;;;;;;;;;4971227;28;20039;-69
2022/10/12 10:51:57;;;;;;;14.10;8.07;;;;;;;;;;4970085;28;20027;-65
2022/10/12 10:54:22;;;;;;;15.95;8.23;;;;;;;;;;4965241;28;20043;-62
2022/10/12 10:56:52;;;;;;;10.98;7.55;;;;;;;;;;4964210;28;20037;-62
2022/10/12 10:59:20;;;;;;;10.95;6.82;;;;;;;;;;4967653;28;20487;-64
2022/10/12 11:02:00;;;;;;;11.60;9.13;;;;;;;;;;4964933;28;20067;-63
2022/10/12 11:04:31;;;;;;;8.80;6.60;;;;;;;;;;4966024;28;20034;-63
2022/10/12 11:07:00;;;;;;;15.68;7.75;;;;;;;;;;4970809;28;20034;-62
2022/10/12 11:09:33;;;;;;;12.57;7.72;;;;;;;;;;4971858;28;20942;-62
2022/10/12 11:12:01;;;;;;;10.18;8.23;;;;;;;;;;4969750;28;20038;-62
2022/10/12 11:14:30;;;;;;;10.23;7.88;;;;;;;;;;4971492;28;20035;-63
2022/10/12 11:17:18;;;;;;;8.30;6.40;;;;;;;;;;4970893;28;20070;-62
2022/10/12 11:19:49;;;;;;;10.70;7.15;;;;;;;;;;4969159;28;20038;-66
2022/10/12 11:22:17;;;;;;;9.65;7.50;;;;;;;;;;4971012;28;20034;-61
2022/10/12 11:24:42;;;;;;;9.55;6.85;;;;;;;;;;4971187;28;20046;-62
2022/10/12 11:27:18;;;;;;;13.90;7.72;;;;;;;;;;4956264;28;20041;-63
2022/10/12 11:29:44;;;;;;;11.38;7.70;;;;;;;;;;4970360;28;20034;-62
2022/10/12 11:32:16;;;;;;;12.93;8.20;;;;;;;;;;4970171;28;20090;-65
2022/10/12 11:34:50;;;;;;;14.63;8.90;;;;;;;;;;4970582;28;20034;-62
2022/10/12 11:37:17;;;;;;;14.07;8.27;;;;;;;;;;4953789;28;20457;-65
2022/10/12 11:39:45;;;;;;;10.77;8.68;;;;;;;;;;4970942;28;20441;-65
2022/10/12 11:42:13;;;;;;;9.35;7.65;;;;;;;;;;4966450;28;20030;-65
2022/10/12 11:44:38;;;;;;;10.82;7.90;;;;;;;;;;4967148;28;20128;-65
2022/10/12 11:47:07;;;;;;;11.27;8.30;;;;;;;;;;4970815;28;20110;-63
2022/10/12 11:49:44;;;;;;;13.68;8.48;;;;;;;;;;4970845;28;20026;-65
2022/10/12 11:52:11;;;;;;;12.95;9.48;;;;;;;;;;4971686;28;20908;-65
2022/10/12 11:54:36;;;;;;;12.27;9.23;;;;;;;;;;4970939;28;20034;-66
2022/10/12 11:57:07;;;;;;;13.68;8.18;;;;;;;;;;4969498;28;20030;-66
2022/10/12 11:59:35;;;;;;;11.32;8.48;;;;;;;;;;4955114;28;20488;-66
2022/10/12 12:02:13;;;;;;;12.30;9.93;;;;;;;;;;4966546;28;20043;-66
2022/10/12 12:04:41;;;;;;;12.90;8.82;;;;;;;;;;4965767;28;20483;-66
2022/10/12 12:07:16;;;;;;;11.25;8.32;;;;;;;;;;4970187;28;20061;-66
2022/10/12 12:09:42;;;;;;;11.73;9.55;;;;;;;;;;4971278;28;20026;-61
2022/10/12 12:12:09;;;;;;;11.25;9.93;;;;;;;;;;4971881;28;20034;-60
2022/10/12 12:14:57;;;;;;;11.95;8.57;;;;;;;;;;4972559;28;20029;-62
2022/10/12 12:17:23;;;;;;;14.40;9.68;;;;;;;;;;4974096;28;20154;-60
2022/10/12 12:19:50;;;;;;;14.48;9.50;;;;;;;;;;4972396;28;20023;-60
2022/10/12 12:22:27;;;;;;;11.88;8.68;;;;;;;;;;4973457;28;20101;-60
2022/10/12 12:25:09;;;;;;;13.43;8.70;;;;;;;;;;4974136;28;20041;-63
2022/10/12 12:27:34;;;;;;;14.52;8.98;;;;;;;;;;4971567;28;20576;-59
2022/10/12 12:30:01;;;;;;;10.88;9.05;;;;;;;;;;4969893;28;20030;-59
2022/10/12 12:32:39;;;;;;;15.10;10.45;;;;;;;;;;4972654;28;20034;-59
2022/10/12 12:35:04;;;;;;;12.43;9.00;;;;;;;;;;4973399;28;20030;-61
2022/10/12 12:37:31;;;;;;;12.00;8.95;;;;;;;;;;4973679;28;20038;-62
2022/10/12 12:39:57;;;;;;;10.23;9.18;;;;;;;;;;4974469;28;20117;-61
2022/10/12 12:42:27;;;;;;;11.18;9.13;;;;;;;;;;4974317;28;20035;-61
2022/10/12 12:44:52;;;;;;;14.32;8.50;;;;;;;;;;4973749;28;20070;-61
2022/10/12 12:47:19;;;;;;;12.45;9.38;;;;;;;;;;4972426;28;20122;-61
2022/10/12 12:49:49;;;;;;;9.27;7.82;;;;;;;;;;4974480;28;20022;-61
2022/10/12 12:52:20;;;;;;;10.82;8.18;;;;;;;;;;4973151;28;20042;-62
2022/10/12 12:55:00;;;;;;;9.27;8.07;;;;;;;;;;4972427;28;20042;-62
2022/10/12 12:57:28;;;;;;;16.23;8.70;;;;;;;;;;4972888;28;20031;-70
2022/10/12 13:00:22;;;;;;;16.52;10.63;;;;;;;;;;4972856;28;20031;-69
2022/10/12 13:03:06;;;;;;;14.82;9.80;;;;;;;;;;4955196;28;20043;-70
2022/10/12 13:05:35;;;;;;;12.80;9.23;;;;;;;;;;4972917;28;20022;-69
2022/10/12 13:08:07;;;;;;;12.10;9.07;;;;;;;;;;4972343;28;20035;-70
2022/10/12 13:10:51;;;;;;;18.15;11.55;;;;;;;;;;4969602;28;20533;-70
2022/10/12 13:13:35;;;;;;;10.55;9.25;;;;;;;;;;4969791;28;20706;-70
2022/10/12 13:16:06;;;;;;;16.33;9.65;;;;;;;;;;4973102;28;20031;-70
2022/10/12 13:18:37;;;;;;;14.38;8.93;;;;;;;;;;4972940;28;20069;-70
2022/10/12 13:21:05;;;;;;;11.30;7.90;;;;;;;;;;4969134;28;20030;-69
2022/10/12 13:23:30;;;;;;;10.68;9.18;;;;;;;;;;4970915;28;20129;-72
2022/10/12 13:25:58;;;;;;;11.35;9.65;;;;;;;;;;4968187;28;20040;-61
2022/10/12 13:28:26;;;;;;;16.13;11.52;;;;;;;;;;4972579;28;20029;-60
2022/10/12 13:30:57;;;;;;;14.05;9.48;;;;;;;;;;4972567;28;20088;-61
2022/10/12 13:33:49;;;;;;;12.60;9.90;;;;;;;;;;4972478;28;20054;-59
2022/10/12 13:36:20;;;;;;;14.50;8.85;;;;;;;;;;4961573;28;20038;-62
2022/10/12 13:38:46;;;;;;;10.35;9.35;;;;;;;;;;4973513;28;20117;-61
2022/10/12 13:41:18;;;;;;;15.10;8.50;;;;;;;;;;4974378;28;20027;-61
2022/10/12 13:43:47;;;;;;;15.05;9.32;;;;;;;;;;4969309;28;20034;-62
2022/10/12 13:46:13;;;;;;;11.57;8.88;;;;;;;;;;4972361;28;20050;-61
2022/10/12 13:48:39;;;;;;;11.93;9.35;;;;;;;;;;4973456;28;20031;-61
2022/10/12 13:51:16;;;;;;;13.25;9.55;;;;;;;;;;4973169;28;20101;-61
2022/10/12 13:53:41;;;;;;;13.15;8.45;;;;;;;;;;4972741;28;20030;-61
2022/10/12 13:56:14;;;;;;;16.00;9.38;;;;;;;;;;4972359;28;20438;-60
2022/10/12 13:58:39;;;;;;;10.60;8.85;;;;;;;;;;4972631;28;20022;-63
2022/10/12 14:01:05;;;;;;;13.82;10.02;;;;;;;;;;4970839;28;20035;-62
2022/10/12 14:03:35;;;;;;;11.85;8.35;;;;;;;;;;4970422;28;20115;-63
2022/10/12 14:06:01;;;;;;;11.90;8.02;;;;;;;;;;4970767;28;20039;-62
2022/10/12 14:08:27;;;;;;;13.50;8.20;;;;;;;;;;4972123;28;20165;-63
2022/10/12 14:10:53;;;;;;;12.38;9.10;;;;;;;;;;4972209;28;20048;-69
2022/10/12 14:13:28;;;;;;;14.43;9.00;;;;;;;;;;4971095;28;20130;-71
2022/10/12 14:15:54;;;;;;;10.88;8.43;;;;;;;;;;4972059;28;20023;-73
2022/10/12 14:18:31;;;;;;;11.65;8.57;;;;;;;;;;4972373;28;20037;-71
2022/10/12 14:21:15;;;;;;;10.55;8.88;;;;;;;;;;4972608;28;20478;-72
2022/10/12 14:23:48;;;;;;;10.75;8.80;;;;;;;;;;4971764;28;20783;-73
2022/10/12 14:26:23;;;;;;;14.10;8.90;;;;;;;;;;4968442;28;20541;-64
2022/10/12 14:28:49;;;;;;;13.27;8.20;;;;;;;;;;4971090;28;20030;-63